Sluck, Belarus
Current Conditions -  °F | °C
As of 6:00 AM on Tuesday 21 Oct 2014 (Local Time) from UMMM Reporting Station
Broken Clouds Broken Clouds  
Wind Chill: 52°   Ceiling: 1400
Heat Index: 52°   Visibility: 6mi
Dew Point: 48°   Wind: 13mph
Humidity: 88%   Direction: 270°W
Pressure: 29.53"   Gusts: 20mph
Location:  53.03°N, 27.55°E
Report Text: UMMM 210400Z 27006G09MPS 9999 BKN014 11/09 Q1000 NOSIG RMKQFE730
Loading
Personal Weather Stations






























Interactive Weather Map
Tropical Storm Tracking
New forecast layout! Learn more

10-Day Weather Forecast

Advertisements
Track Severe Weather on mobile